Flight Track Log - Related Links

Times and Time Zones

All times are in EDT time to prevent confusion due to time zone crossing. See the SWA624 flight status page for this flight to view local times or setup timezone preferences in your user account.

Time Position Orientation Groundspeed Altitude Reporting Facility
EDT Latitude Longitude Course Direction KTS MPH feet Rate Location/Type
Wed 02:32:29 PM 30.4228 -85.5425 48° Northeast 311 358 13,100  Level Jacksonville Center
Wed 02:33:29 PM 30.5111 -85.5014 22° Northeast 364 419 15,800 2,900 Climbing Jacksonville Center
Wed 02:34:29 PM 30.5797 -85.4164 47° Northeast 381 438 18,900 2,900 Climbing Jacksonville Center
Wed 02:35:00 PM 30.8263 -85.1878 48° Northeast  Level FlightAware Approximate
Wed 02:35:29 PM 30.6381 -85.3167 56° Northeast 420 483 21,600  Level Jacksonville Center
Wed 02:36:00 PM 30.8930 -85.1005 48° Northeast  Level FlightAware Approximate
Wed 02:37:00 PM 30.9596 -85.0130 48° Northeast  Level FlightAware Approximate
Wed 02:37:29 PM 30.8328 -85.1717 33° Northeast 410 472 26,200  Level Jacksonville Center
Wed 02:38:29 PM 30.9403 -85.1136 25° Northeast 410 472 28,500 2,200 Climbing Jacksonville Center
Wed 02:39:29 PM 31.0481 -85.0433 29° Northeast 422 486 30,600 1,950 Climbing Jacksonville Center
Wed 02:40:29 PM 31.1514 -84.9706 31° Northeast 427 491 32,400 1,600 Climbing Jacksonville Center
Wed 02:41:29 PM 31.2425 -84.9044 32° Northeast 427 491 33,800 1,500 Climbing Jacksonville Center
Wed 02:42:29 PM 31.3481 -84.8264 32° Northeast 434 499 35,400 1,850 Climbing Jacksonville Center
Wed 02:43:29 PM 31.4350 -84.7236 45° Northeast 440 506 37,500 1,900 Climbing Jacksonville Center
Wed 02:44:29 PM 31.5200 -84.6253 45° Northeast 428 493 39,200 1,338 Climbing Jacksonville Center
Wed 02:46:06 PM 31.6519 -84.4683 45° Northeast 422 486 41,000 688 Climbing Atlanta Center
Wed 02:47:06 PM 31.7275 -84.3611 50° Northeast 422 486 41,000  Level Atlanta Center
Wed 02:48:06 PM 31.8028 -84.2489 52° Northeast 427 491 41,000  Level Atlanta Center
Wed 02:49:06 PM 31.8758 -84.1392 52° Northeast 427 491 41,000  Level Atlanta Center
Wed 02:50:06 PM 31.9533 -84.0292 50° Northeast 427 491 41,000  Level Atlanta Center
Wed 02:51:06 PM 32.0283 -83.9139 52° Northeast 432 497 41,000  Level Atlanta Center
Wed 02:52:06 PM 32.1033 -83.8011 52° Northeast 437 503 41,000  Level Atlanta Center
Wed 02:53:06 PM 32.1761 -83.6881 53° Northeast 442 509 41,000  Level Atlanta Center
Wed 02:54:06 PM 32.2508 -83.5722 53° Northeast 442 509 41,000  Level Atlanta Center
Wed 02:55:06 PM 32.3275 -83.4564 52° Northeast 442 509 41,000  Level Atlanta Center
Wed 02:56:06 PM 32.4042 -83.3425 51° Northeast 442 509 41,000  Level Atlanta Center
Wed 02:57:06 PM 32.4869 -83.2139 53° Northeast 442 509 41,000  Level Atlanta Center
Wed 02:58:06 PM 32.5633 -83.0972 52° Northeast 442 509 41,000  Level Atlanta Center
Wed 02:59:06 PM 32.6394 -82.9781 53° Northeast 442 509 41,000  Level Atlanta Center
Wed 03:00:06 PM 32.7158 -82.8858 45° Northeast 436 502 41,000  Level Atlanta Center
Wed 03:02:29 PM 32.9428 -82.6425 42° Northeast 448 516 41,000  Level Jacksonville Center
Wed 03:03:30 PM 33.0367 -82.5358 44° Northeast 453 521 41,000  Level Jacksonville Center
Wed 03:04:29 PM 33.1322 -82.4311 43° Northeast 453 521 41,000  Level Jacksonville Center
Wed 03:05:30 PM 33.2236 -82.3239 44° Northeast 453 521 41,000  Level Jacksonville Center
Wed 03:06:30 PM 33.3233 -82.2014 46° Northeast 453 521 41,000  Level Jacksonville Center
Wed 03:07:30 PM 33.4122 -82.0914 46° Northeast 458 527 41,000  Level Jacksonville Center
Wed 03:08:29 PM 33.4992 -81.9761 48° Northeast 458 527 41,000  Level Jacksonville Center
Wed 03:09:30 PM 33.5817 -81.8531 51° Northeast 458 527 41,000  Level Jacksonville Center
Wed 03:10:30 PM 33.6642 -81.7297 51° Northeast 463 533 41,000  Level Jacksonville Center
Wed 03:11:29 PM 33.7381 -81.6039 55° Northeast 463 533 41,000  Level Jacksonville Center
Wed 03:12:30 PM 33.8158 -81.4728 54° Northeast 463 533 41,000  Level Jacksonville Center
Wed 03:13:30 PM 33.8917 -81.3489 54° Northeast 463 533 41,000  Level Jacksonville Center
Wed 03:14:30 PM 33.9694 -81.2222 53° Northeast 463 533 41,000  Level Jacksonville Center
Wed 03:15:30 PM 34.0469 -81.0956 54° Northeast 463 533 41,000  Level Jacksonville Center
Wed 03:16:30 PM 34.1222 -80.9736 53° Northeast 452 520 41,000  Level Jacksonville Center
Wed 03:17:29 PM 34.1975 -80.8464 54° Northeast 452 520 41,000  Level Jacksonville Center
Wed 03:18:30 PM 34.2767 -80.7164 54° Northeast 464 534 41,000  Level Jacksonville Center
Wed 03:19:29 PM 34.3517 -80.5914 54° Northeast 464 534 41,000  Level Jacksonville Center
Wed 03:20:30 PM 34.4283 -80.4608 55° Northeast 464 534 41,000  Level Jacksonville Center
Wed 03:21:30 PM 34.5117 -80.3400 50° Northeast 464 534 41,000  Level Jacksonville Center
Wed 03:23:32 PM 34.6864 -80.1358 44° Northeast 456 525 41,000  Level Washington Center
Wed 03:24:30 PM 34.7931 -80.0203 42° Northeast 463 533 41,000  Level Washington Center
Wed 03:25:31 PM 34.8908 -79.9117 42° Northeast 472 543 41,000  Level Washington Center
Wed 03:26:32 PM 34.9864 -79.8028 43° Northeast 461 531 41,000  Level Washington Center
Wed 03:27:32 PM 35.0819 -79.6961 42° Northeast 461 531 41,000  Level Washington Center
Wed 03:28:32 PM 35.1775 -79.5892 42° Northeast 461 531 41,000  Level Washington Center
Wed 03:29:31 PM 35.2728 -79.4794 43° Northeast 467 537 41,000  Level Washington Center
Wed 03:30:33 PM 35.3725 -79.3669 43° Northeast 467 537 41,000  Level Washington Center
Wed 03:31:30 PM 35.4656 -79.2592 43° Northeast 472 543 41,000  Level Washington Center
Wed 03:32:31 PM 35.5414 -79.1708 43° Northeast 477 549 41,000 -492 Level Washington Center
Wed 03:33:32 PM 35.6558 -79.0406 43° Northeast 462 532 40,000 -893 Descending Washington Center
Wed 03:34:32 PM 35.7419 -78.9444 42° Northeast 462 532 39,200 -915 Descending Washington Center
Wed 03:35:30 PM 35.8369 -78.8306 44° Northeast 462 532 38,200 -950 Descending Washington Center
Wed 03:36:32 PM 35.9375 -78.7294 39° Northeast 462 532 37,300 -590 Descending Washington Center
Wed 03:37:32 PM 36.0444 -78.6361 35° Northeast 462 532 37,000 -1,017 Descending Washington Center
Wed 03:38:30 PM 36.1511 -78.5425 35° Northeast 462 532 35,300 -2,118 Descending Washington Center
Wed 03:39:31 PM 36.2533 -78.4536 35° Northeast 462 532 32,800 -2,115 Descending Washington Center
Wed 03:40:32 PM 36.3594 -78.3775 30° Northeast 451 519 31,000 -893 Descending Washington Center
Wed 03:41:32 PM 36.4792 -78.3378 15° North 432 497 31,000  Level Washington Center
Wed 03:42:31 PM 36.6011 -78.2981 15° North 437 503 31,000 -400 Level Washington Center
Wed 03:43:32 PM 36.7169 -78.2478 19° North 443 510 30,200 -908 Descending Washington Center
Wed 03:44:30 PM 36.8350 -78.2025 17° North 443 510 29,200 -1,068 Descending Washington Center
Wed 03:45:30 PM 36.9633 -78.1497 18° North 438 504 28,100 -1,041 Descending Washington Center
Wed 03:46:31 PM 37.0644 -78.1089 18° North 430 495 27,100 -992 Descending Washington Center
Wed 03:47:31 PM 37.1719 -78.0472 25° Northeast 430 495 26,100 -555 Descending Washington Center
Wed 03:48:30 PM 37.2775 -77.9828 26° Northeast 419 482 26,000 -50 Descending Washington Center
Wed 03:49:31 PM 37.3833 -77.9128 28° Northeast 419 482 26,000 -541 Level Washington Center
Wed 03:50:32 PM 37.4867 -77.8481 26° Northeast 419 482 24,900 -1,160 Descending Washington Center
Wed 03:51:30 PM 37.5861 -77.7800 28° Northeast 413 475 23,700 -966 Descending Washington Center
Wed 03:52:30 PM 37.6792 -77.7042 33° Northeast 408 470 23,000 -347 Descending Washington Center
Wed 03:53:31 PM 37.7681 -77.6331 32° Northeast 389 448 23,000  Level Washington Center
Wed 03:54:32 PM 37.8589 -77.5592 33° Northeast 384 442 23,000  Level Washington Center
Wed 03:55:30 PM 37.9497 -77.4878 32° Northeast 384 442 23,000 -202 Level Washington Center
Wed 03:56:31 PM 38.0489 -77.4086 32° Northeast 384 442 22,600 -1,140 Descending Washington Center
Wed 03:57:31 PM 38.1356 -77.3367 33° Northeast 379 436 20,700 -1,884 Descending Washington Center
Wed 03:58:32 PM 38.2200 -77.2672 33° Northeast 379 436 18,800 -1,866 Descending Washington Center
Wed 03:59:30 PM 38.3042 -77.2006 32° Northeast 374 430 17,000 -1,932 Descending Washington Center
Wed 04:00:30 PM 38.3906 -77.1308 32° Northeast 369 425 15,000 -1,636 Descending Washington Center
Wed 04:01:31 PM 38.4583 -77.0472 44° Northeast 355 409 13,700 -1,475 Descending Washington Center
Wed 04:02:32 PM 38.5239 -76.9664 44° Northeast 337 388 12,000 -1,109 Descending Washington Center
Wed 04:03:30 PM 38.5894 -76.8878 43° Northeast 323 372 11,500 -915 Descending Washington Center
Wed 04:04:30 PM 38.6528 -76.8119 43° Northeast 317 365 10,200 -1,250 Descending Washington Center
Wed 04:05:30 PM 38.7036 -76.7461 45° Northeast 293 337 9,000 -1,200 Descending Washington Center
Wed 04:07:05 PM 38.7667 -76.6000 61° Northeast 270 311 7,100 -1,316 Descending Potomac TRACON
Wed 04:08:05 PM 38.8167 -76.5333 46° Northeast 275 316 5,600 -1,450 Descending Potomac TRACON
Wed 04:09:05 PM 38.8833 -76.5500 349° North 264 304 4,200 -950 Descending Potomac TRACON
Wed 04:10:05 PM 38.9500 -76.5500 360° North 232 267 3,700 -744 Descending Potomac TRACON
Wed 04:11:06 PM 39.0167 -76.5667 349° North 227 261 2,700 -893 Descending Potomac TRACON
Wed 04:12:06 PM 39.0833 -76.5833 349° North 220 253 1,900 -737 Descending Potomac TRACON
Wed 04:13:00 PM 39.1167 -76.6167 322° Northwest 171 197 1,300 -789 Descending Potomac TRACON
Wed 04:14:00 PM 39.1500 -76.6500 322° Northwest 146 168 400 -900 Descending Potomac TRACON
Wed 04:15:00 PM 39.1667 -76.6667 339° North  Level FlightAware Approximate
Wed 04:22:00 PM 39.1754 -76.6683 339° North  Level Estimated
Wed 04:23:00 PM 39.1754 -76.6683 339° North  Level Estimated
Wed 04:24:00 PM 39.1754 -76.6683 339° North  Level Estimated
Wed 04:25:00 PM 39.1754 -76.6683 339° North  Level Estimated
Wed 04:26:00 PM 39.1754 -76.6683 339° North  Level Estimated

Login

Don't have an account? Register now (free) for customized features, flight alerts, and more!